createdAt,value
2024-01-30T00:02:37.904Z,-2.35
2024-01-30T00:05:40.280Z,-2.25
2024-01-30T00:08:43.046Z,-2.42
2024-01-30T00:11:45.362Z,-2.25
2024-01-30T00:14:50.118Z,-2.38
2024-01-30T00:17:56.990Z,-2.58
2024-01-30T00:21:01.187Z,-2.66
2024-01-30T00:24:05.573Z,-2.59
2024-01-30T00:27:07.896Z,-2.68
2024-01-30T00:30:11.147Z,-2.80
2024-01-30T00:33:13.579Z,-2.93
2024-01-30T00:36:16.988Z,-2.89
2024-01-30T00:39:20.834Z,-2.99
2024-01-30T00:42:25.154Z,-2.84
2024-01-30T00:45:29.748Z,-2.91
2024-01-30T00:48:32.035Z,-3.03
2024-01-30T00:51:34.456Z,-2.91
2024-01-30T00:54:38.628Z,-2.93
2024-01-30T00:57:42.856Z,-3.03
2024-01-30T01:00:48.081Z,-3.04
2024-01-30T01:03:50.681Z,-2.97
2024-01-30T01:06:53.317Z,-2.90
2024-01-30T01:09:55.688Z,-2.94
2024-01-30T01:12:59.020Z,-2.90
2024-01-30T01:16:01.423Z,-3.03
2024-01-30T01:19:04.718Z,-3.01
2024-01-30T01:22:07.216Z,-2.97
2024-01-30T01:25:10.225Z,-3.04
2024-01-30T01:28:12.716Z,-3.00
2024-01-30T01:31:15.057Z,-2.91
2024-01-30T01:34:18.205Z,-2.86
2024-01-30T01:37:23.396Z,-2.84
2024-01-30T01:40:26.289Z,-2.73
2024-01-30T01:43:28.649Z,-2.73
2024-01-30T01:46:35.327Z,-2.77
2024-01-30T01:49:45.232Z,-2.73
2024-01-30T01:52:51.875Z,-2.79
2024-01-30T01:55:56.627Z,-2.69
2024-01-30T01:59:03.993Z,-2.69
2024-01-30T02:02:10.033Z,-2.72
2024-01-30T02:05:12.511Z,-2.80
2024-01-30T02:08:15.104Z,-2.84
2024-01-30T02:11:17.997Z,-2.90
2024-01-30T02:14:20.412Z,-2.91
2024-01-30T02:17:24.344Z,-2.90
2024-01-30T02:20:31.073Z,-2.79
2024-01-30T02:23:35.531Z,-2.79
2024-01-30T02:26:37.842Z,-3.03
2024-01-30T02:29:41.124Z,-3.00
2024-01-30T02:32:43.392Z,-3.11
2024-01-30T02:35:45.846Z,-3.07
2024-01-30T02:38:48.139Z,-3.28
2024-01-30T02:41:50.384Z,-3.37
2024-01-30T02:44:53.073Z,-3.40
2024-01-30T02:47:55.386Z,-3.38
2024-01-30T02:50:59.291Z,-3.47
2024-01-30T02:54:01.555Z,-3.42
2024-01-30T02:57:03.897Z,-3.55
2024-01-30T03:00:07.621Z,-3.58
2024-01-30T03:03:10.373Z,-3.51
2024-01-30T03:06:12.731Z,-3.56
2024-01-30T03:09:16.729Z,-3.51
2024-01-30T03:12:19.165Z,-3.58
2024-01-30T03:15:21.554Z,-3.54
2024-01-30T03:18:24.786Z,-3.61
2024-01-30T03:21:27.084Z,-3.81
2024-01-30T03:24:29.369Z,-3.97
2024-01-30T03:27:31.846Z,-3.97
2024-01-30T03:30:35.677Z,-3.96
2024-01-30T03:33:38.225Z,-4.18
2024-01-30T03:36:41.276Z,-3.96
2024-01-30T03:39:43.648Z,-3.99
2024-01-30T03:42:46.630Z,-3.97
2024-01-30T03:45:49.948Z,-4.06
2024-01-30T03:48:52.294Z,-4.04
2024-01-30T03:51:55.419Z,-4.11
2024-01-30T03:54:57.727Z,-4.18
2024-01-30T03:58:02.046Z,-4.18
2024-01-30T04:01:05.074Z,-4.23
2024-01-30T04:04:07.454Z,-4.38
2024-01-30T04:07:09.837Z,-4.45
2024-01-30T04:10:12.331Z,-4.45
2024-01-30T04:13:15.453Z,-4.34
2024-01-30T04:16:23.375Z,-4.30
2024-01-30T04:19:26.498Z,-4.43
2024-01-30T04:22:28.829Z,-4.43
2024-01-30T04:25:31.138Z,-4.54
2024-01-30T04:28:33.578Z,-4.48
2024-01-30T04:31:37.892Z,-4.62
2024-01-30T04:34:40.596Z,-4.47
2024-01-30T04:37:43.029Z,-4.38
2024-01-30T04:40:48.183Z,-4.44
2024-01-30T04:43:50.417Z,-4.34
2024-01-30T04:46:52.713Z,-4.43
2024-01-30T04:49:55.765Z,-4.45
2024-01-30T04:52:58.121Z,-4.37
2024-01-30T04:56:00.640Z,-4.26
2024-01-30T04:59:03.912Z,-4.21
2024-01-30T05:02:06.491Z,-4.20
2024-01-30T05:05:09.675Z,-4.18
2024-01-30T05:08:12.050Z,-4.18
2024-01-30T05:11:14.299Z,-4.20
2024-01-30T05:14:17.588Z,-4.18
2024-01-30T05:17:22.924Z,-4.11
2024-01-30T05:20:25.328Z,-4.16
2024-01-30T05:23:29.520Z,-4.16
2024-01-30T05:26:34.606Z,-4.24
2024-01-30T05:29:37.094Z,-4.26
2024-01-30T05:32:39.573Z,-4.31
2024-01-30T05:35:42.048Z,-4.18
2024-01-30T05:38:44.839Z,-4.31
2024-01-30T05:41:50.053Z,-4.43
2024-01-30T05:44:53.552Z,-4.38
2024-01-30T05:47:56.489Z,-4.38
2024-01-30T05:51:01.673Z,-4.34
2024-01-30T05:54:04.978Z,-4.31
2024-01-30T05:57:08.161Z,-4.28
2024-01-30T06:00:10.770Z,-4.30
2024-01-30T06:03:13.114Z,-4.28
2024-01-30T06:06:16.629Z,-4.20
2024-01-30T06:09:18.929Z,-4.16
2024-01-30T06:12:21.338Z,-4.16
2024-01-30T06:15:23.612Z,-4.27
2024-01-30T06:18:28.330Z,-4.10
2024-01-30T06:21:33.977Z,-4.00
2024-01-30T06:24:36.250Z,-4.02
2024-01-30T06:27:38.568Z,-3.92
2024-01-30T06:30:46.073Z,-3.73
2024-01-30T06:33:49.762Z,-3.58
2024-01-30T06:36:54.510Z,-3.24
2024-01-30T06:40:01.629Z,-2.82
2024-01-30T06:43:06.189Z,-2.58
2024-01-30T06:46:09.206Z,-2.42
2024-01-30T06:49:11.770Z,-2.29
2024-01-30T06:52:15.603Z,-2.22
2024-01-30T06:55:18.057Z,-2.09
2024-01-30T06:58:20.562Z,-2.07
2024-01-30T07:01:29.513Z,-1.95
2024-01-30T07:04:35.356Z,-1.76
2024-01-30T07:07:37.952Z,-1.50
2024-01-30T07:10:40.958Z,-1.34
2024-01-30T07:13:43.317Z,-1.25
2024-01-30T07:16:45.568Z,-1.31
2024-01-30T07:19:47.949Z,-1.38
2024-01-30T07:22:51.444Z,-1.38
2024-01-30T07:25:55.159Z,-1.36
2024-01-30T07:28:58.540Z,-1.39
2024-01-30T07:32:01.033Z,-1.25
2024-01-30T07:35:08.300Z,-1.11
2024-01-30T07:38:11.665Z,-0.92
2024-01-30T07:41:14.067Z,-0.67
2024-01-30T07:44:17.598Z,-0.54
2024-01-30T07:47:19.966Z,-0.17
2024-01-30T07:50:27.692Z,0.17
2024-01-30T07:53:30.514Z,-0.06
2024-01-30T07:56:38.752Z,-0.10
2024-01-30T07:59:45.031Z,0.01
2024-01-30T08:02:47.435Z,0.32
2024-01-30T08:05:49.750Z,0.26
2024-01-30T08:08:54.893Z,0.33
2024-01-30T08:11:57.882Z,0.79
2024-01-30T08:15:00.214Z,1.18
2024-01-30T08:18:05.779Z,1.47
2024-01-30T08:21:08.146Z,1.10
2024-01-30T08:24:13.905Z,0.84
2024-01-30T08:27:17.221Z,1.00
2024-01-30T08:30:20.626Z,0.93
2024-01-30T08:33:26.634Z,1.47
2024-01-30T08:36:29.105Z,2.26
2024-01-30T08:39:31.888Z,2.72
2024-01-30T08:42:34.494Z,2.71
2024-01-30T08:45:36.937Z,4.07
2024-01-30T08:48:39.340Z,4.26
2024-01-30T08:51:42.690Z,3.56
2024-01-30T08:54:44.990Z,4.39
2024-01-30T08:57:47.543Z,4.97
2024-01-30T09:00:49.972Z,4.44
2024-01-30T09:03:52.557Z,4.31
2024-01-30T09:06:55.022Z,4.39
2024-01-30T09:09:57.826Z,4.29
2024-01-30T09:13:00.199Z,4.41
2024-01-30T09:16:09.714Z,4.58
2024-01-30T09:19:12.144Z,4.05
2024-01-30T09:22:14.609Z,4.72
2024-01-30T09:25:22.894Z,5.45
2024-01-30T09:28:27.669Z,6.85
2024-01-30T09:31:35.977Z,7.40
2024-01-30T09:34:51.621Z,7.13
2024-01-30T09:38:03.912Z,6.95
2024-01-30T09:41:20.682Z,7.50
2024-01-30T09:44:25.651Z,7.43
2024-01-30T09:47:38.625Z,7.16
2024-01-30T09:50:47.953Z,6.31
2024-01-30T09:54:09.553Z,5.18
2024-01-30T09:57:23.552Z,5.40
2024-01-30T10:00:28.772Z,6.17
2024-01-30T10:03:37.901Z,7.03
2024-01-30T10:06:50.893Z,7.06
2024-01-30T10:09:55.245Z,6.53
2024-01-30T10:12:57.631Z,6.80
2024-01-30T10:16:00.564Z,7.05
2024-01-30T10:19:04.101Z,7.78
2024-01-30T10:22:06.879Z,9.10
2024-01-30T10:25:09.245Z,8.90
2024-01-30T10:28:17.954Z,9.88
2024-01-30T10:31:21.061Z,9.92
2024-01-30T10:34:24.510Z,9.39
2024-01-30T10:37:27.547Z,8.69
2024-01-30T10:40:32.604Z,9.28
2024-01-30T10:43:42.772Z,9.23
2024-01-30T10:46:55.938Z,9.10
2024-01-30T10:49:58.724Z,9.63
2024-01-30T10:53:02.893Z,10.26
2024-01-30T10:56:06.228Z,10.10
2024-01-30T10:59:11.973Z,10.00
2024-01-30T11:02:15.633Z,9.79
2024-01-30T11:05:28.711Z,10.84
2024-01-30T11:08:33.752Z,10.30
2024-01-30T11:12:13.525Z,11.16
2024-01-30T11:15:18.671Z,10.70
2024-01-30T11:18:26.871Z,10.94
2024-01-30T11:21:29.527Z,13.37
2024-01-30T11:24:31.984Z,13.48
2024-01-30T11:27:35.836Z,14.39
2024-01-30T11:30:38.146Z,15.69
2024-01-30T11:33:40.532Z,13.98
2024-01-30T11:36:44.547Z,14.72
2024-01-30T11:39:48.183Z,16.60
2024-01-30T11:42:50.919Z,16.40
2024-01-30T11:45:53.582Z,15.61
2024-01-30T11:48:56.271Z,16.67
2024-01-30T11:51:58.875Z,17.77
2024-01-30T11:55:06.540Z,15.32
2024-01-30T11:58:23.569Z,15.51
2024-01-30T12:01:26.395Z,15.69
2024-01-30T12:04:30.891Z,16.40
2024-01-30T12:07:36.418Z,16.61
2024-01-30T12:10:38.801Z,15.62
2024-01-30T12:13:42.838Z,14.84
2024-01-30T12:16:53.147Z,15.70
2024-01-30T12:20:08.116Z,15.37
2024-01-30T12:23:10.971Z,14.93
2024-01-30T12:26:14.658Z,15.75
2024-01-30T12:29:17.065Z,16.37
2024-01-30T12:32:19.388Z,16.72
2024-01-30T12:35:22.785Z,16.81
2024-01-30T12:38:26.011Z,16.64
2024-01-30T12:41:34.258Z,16.02
2024-01-30T12:44:36.537Z,15.95
2024-01-30T12:47:38.997Z,15.59
2024-01-30T12:50:41.310Z,17.15
2024-01-30T12:53:43.772Z,16.48
2024-01-30T12:56:46.060Z,15.44
2024-01-30T12:59:49.147Z,16.63
2024-01-30T13:02:52.554Z,16.27
2024-01-30T13:05:55.281Z,15.93
2024-01-30T13:08:57.637Z,15.14
2024-01-30T13:12:01.512Z,14.84
2024-01-30T13:15:06.139Z,14.98
2024-01-30T13:18:11.701Z,16.37
2024-01-30T13:21:14.012Z,16.58
2024-01-30T13:24:28.542Z,15.54
2024-01-30T13:27:30.857Z,15.68
2024-01-30T13:30:33.893Z,14.29
2024-01-30T13:33:36.219Z,14.37
2024-01-30T13:36:38.551Z,15.72
2024-01-30T13:39:40.807Z,16.17
2024-01-30T13:42:43.703Z,16.07
2024-01-30T13:45:50.459Z,15.78
2024-01-30T13:48:53.791Z,16.24
2024-01-30T13:51:58.058Z,16.30
2024-01-30T13:55:00.781Z,16.26
2024-01-30T13:58:03.344Z,14.75
2024-01-30T14:01:06.583Z,14.59
2024-01-30T14:04:12.017Z,14.32
2024-01-30T14:07:15.471Z,14.63
2024-01-30T14:10:17.971Z,14.04
2024-01-30T14:13:21.010Z,14.83
2024-01-30T14:16:23.317Z,13.60
2024-01-30T14:19:25.678Z,13.24
2024-01-30T14:22:28.105Z,12.64
2024-01-30T14:25:30.598Z,12.88
2024-01-30T14:28:33.050Z,12.92
2024-01-30T14:31:35.396Z,13.12
2024-01-30T14:34:38.512Z,12.41
2024-01-30T14:37:41.646Z,12.35
2024-01-30T14:40:43.998Z,11.25
2024-01-30T14:43:46.289Z,10.95
2024-01-30T14:46:48.648Z,10.81
2024-01-30T14:49:51.014Z,11.94
2024-01-30T14:52:53.274Z,11.56
2024-01-30T14:55:56.159Z,11.76
2024-01-30T14:58:59.603Z,11.26
2024-01-30T15:02:02.282Z,10.17
2024-01-30T15:05:05.586Z,9.65
2024-01-30T15:08:08.367Z,9.65
2024-01-30T15:11:11.109Z,9.58
2024-01-30T15:14:14.586Z,9.00
2024-01-30T15:17:20.193Z,9.23
2024-01-30T15:20:22.649Z,8.22
2024-01-30T15:23:25.283Z,7.70
2024-01-30T15:26:40.498Z,7.26
2024-01-30T15:29:43.281Z,6.51
2024-01-30T15:32:46.313Z,6.31
2024-01-30T15:35:48.579Z,5.90
2024-01-30T15:38:51.552Z,5.62
2024-01-30T15:41:54.884Z,5.45
2024-01-30T15:44:57.740Z,5.27
2024-01-30T15:48:00.413Z,5.14
2024-01-30T15:51:03.379Z,5.01
2024-01-30T15:54:06.920Z,4.84
2024-01-30T15:57:09.330Z,4.75
2024-01-30T16:00:13.875Z,4.58
2024-01-30T16:03:18.304Z,4.44
2024-01-30T16:06:21.578Z,4.24
2024-01-30T16:09:25.036Z,4.05
2024-01-30T16:12:28.315Z,3.74
2024-01-30T16:15:33.076Z,3.57
2024-01-30T16:18:35.582Z,3.39
2024-01-30T16:21:38.193Z,3.25
2024-01-30T16:24:41.541Z,3.11
2024-01-30T16:27:44.545Z,2.92
2024-01-30T16:30:47.455Z,2.81
2024-01-30T16:33:50.514Z,2.51
2024-01-30T16:36:53.533Z,2.50
2024-01-30T16:39:55.990Z,2.48
2024-01-30T16:42:58.325Z,2.29
2024-01-30T16:46:01.008Z,2.22
2024-01-30T16:49:13.393Z,2.05
2024-01-30T16:52:23.377Z,1.95
2024-01-30T16:55:27.850Z,1.90
2024-01-30T16:58:30.653Z,1.90
2024-01-30T17:01:33.161Z,1.85
2024-01-30T17:04:36.251Z,1.86
2024-01-30T17:07:39.452Z,1.81
2024-01-30T17:10:42.607Z,1.65
2024-01-30T17:13:44.864Z,1.54
2024-01-30T17:16:51.801Z,1.51
2024-01-30T17:19:59.201Z,1.32
2024-01-30T17:23:15.633Z,1.26
2024-01-30T17:26:25.708Z,1.16
2024-01-30T17:29:28.165Z,1.03
2024-01-30T17:32:30.988Z,0.87
2024-01-30T17:35:33.506Z,0.81
2024-01-30T17:38:36.010Z,0.75
2024-01-30T17:41:39.088Z,0.68
2024-01-30T17:44:44.732Z,0.60
2024-01-30T17:48:10.620Z,0.66
2024-01-30T17:51:15.569Z,0.63
2024-01-30T17:54:20.081Z,0.60
2024-01-30T17:57:24.713Z,0.59
2024-01-30T18:00:31.563Z,0.55
2024-01-30T18:03:34.906Z,0.46
2024-01-30T18:06:37.712Z,0.45
2024-01-30T18:09:53.695Z,0.46
2024-01-30T18:12:57.428Z,0.42
2024-01-30T18:15:59.933Z,0.30
2024-01-30T18:19:02.275Z,0.22
2024-01-30T18:22:05.622Z,0.07
2024-01-30T18:25:08.487Z,-0.07
2024-01-30T18:28:10.796Z,-0.12
2024-01-30T18:31:13.468Z,-0.19
2024-01-30T18:34:28.027Z,-0.20
2024-01-30T18:37:31.673Z,-0.33
2024-01-30T18:40:34.859Z,-0.33
2024-01-30T18:43:38.186Z,-0.19
2024-01-30T18:46:42.344Z,-0.16
2024-01-30T18:49:45.711Z,-0.16
2024-01-30T18:52:48.074Z,-0.14
2024-01-30T18:55:59.555Z,-0.07
2024-01-30T18:59:03.324Z,-0.12
2024-01-30T19:02:05.783Z,-0.17
2024-01-30T19:05:08.339Z,-0.10
2024-01-30T19:08:10.865Z,-0.10
2024-01-30T19:11:20.776Z,-0.03
2024-01-30T19:14:27.890Z,0.02
2024-01-30T19:17:31.779Z,0.08
2024-01-30T19:20:34.376Z,0.11
2024-01-30T19:23:37.493Z,0.33
2024-01-30T19:26:41.774Z,0.38
2024-01-30T19:29:45.782Z,0.45
2024-01-30T19:32:50.135Z,0.53
2024-01-30T19:36:02.025Z,0.59
2024-01-30T19:39:13.217Z,0.52
2024-01-30T19:42:15.455Z,0.52
2024-01-30T19:45:17.796Z,0.48
2024-01-30T19:48:26.974Z,0.44
2024-01-30T19:51:35.541Z,0.44
2024-01-30T19:54:40.043Z,0.41
2024-01-30T19:57:49.672Z,0.38
2024-01-30T20:00:52.114Z,0.35
2024-01-30T20:03:57.735Z,0.38
2024-01-30T20:07:00.263Z,0.30
2024-01-30T20:10:02.882Z,0.25
2024-01-30T20:13:06.850Z,0.35
2024-01-30T20:16:09.366Z,0.38
2024-01-30T20:19:12.754Z,0.35
2024-01-30T20:22:15.345Z,0.33
2024-01-30T20:25:19.607Z,0.30
2024-01-30T20:28:23.215Z,0.30
2024-01-30T20:31:33.280Z,0.32
2024-01-30T20:34:49.613Z,0.29
2024-01-30T20:38:05.064Z,0.24
2024-01-30T20:41:12.658Z,0.18
2024-01-30T20:44:21.005Z,0.14
2024-01-30T20:47:23.446Z,0.17
2024-01-30T20:50:30.924Z,0.19
2024-01-30T20:53:34.544Z,0.08
2024-01-30T20:56:36.797Z,-0.06
2024-01-30T20:59:39.297Z,-0.13
2024-01-30T21:02:42.972Z,-0.22
2024-01-30T21:05:45.376Z,-0.27
2024-01-30T21:08:48.164Z,-0.44
2024-01-30T21:11:52.509Z,-0.54
2024-01-30T21:14:54.798Z,-0.58
2024-01-30T21:17:57.359Z,-0.75
2024-01-30T21:20:59.825Z,-0.81
2024-01-30T21:24:04.526Z,-0.85
2024-01-30T21:27:06.951Z,-0.89
2024-01-30T21:30:10.412Z,-0.88
2024-01-30T21:33:16.667Z,-0.80
2024-01-30T21:36:19.868Z,-0.85
2024-01-30T21:39:23.517Z,-0.88
2024-01-30T21:42:26.702Z,-0.92
2024-01-30T21:45:35.612Z,-0.92
2024-01-30T21:48:39.151Z,-0.89
2024-01-30T21:51:49.965Z,-0.91
2024-01-30T21:54:54.710Z,-0.98
2024-01-30T21:57:57.736Z,-0.95
2024-01-30T22:01:06.387Z,-0.98
2024-01-30T22:04:08.952Z,-1.04
2024-01-30T22:07:13.763Z,-1.04
2024-01-30T22:10:17.284Z,-0.99
2024-01-30T22:13:23.475Z,-0.88
2024-01-30T22:16:28.236Z,-0.88
2024-01-30T22:19:30.695Z,-0.89
2024-01-30T22:22:39.654Z,-0.94
2024-01-30T22:25:44.820Z,-0.96
2024-01-30T22:28:48.063Z,-1.02
2024-01-30T22:31:52.310Z,-1.05
2024-01-30T22:34:56.097Z,-1.11
2024-01-30T22:37:58.502Z,-1.19
2024-01-30T22:41:00.759Z,-1.25
2024-01-30T22:44:03.095Z,-1.20
2024-01-30T22:47:05.996Z,-1.26
2024-01-30T22:50:10.420Z,-1.38
2024-01-30T22:53:17.545Z,-1.43
2024-01-30T22:56:19.877Z,-1.52
2024-01-30T22:59:22.181Z,-1.53
2024-01-30T23:02:30.905Z,-1.56
2024-01-30T23:05:34.488Z,-1.53
2024-01-30T23:08:36.847Z,-1.56
2024-01-30T23:11:43.535Z,-1.59
2024-01-30T23:14:46.033Z,-1.56
2024-01-30T23:17:48.636Z,-1.62
2024-01-30T23:20:51.014Z,-1.63
2024-01-30T23:23:53.266Z,-1.70
2024-01-30T23:26:56.237Z,-1.63
2024-01-30T23:29:59.015Z,-1.68
2024-01-30T23:33:02.306Z,-1.74
2024-01-30T23:36:04.860Z,-1.76
2024-01-30T23:39:07.159Z,-1.78
2024-01-30T23:42:10.878Z,-1.81
2024-01-30T23:45:13.242Z,-1.73
2024-01-30T23:48:15.786Z,-1.66
2024-01-30T23:51:18.184Z,-1.68
2024-01-30T23:54:20.468Z,-1.66
2024-01-30T23:57:23.754Z,-1.63
